sensor_id;sensor_type;location;lat;lon;timestamp;temperature;humidity
27759;DHT22;15148;48.972;12.794;2023-02-28T00:03:04;-3.20;99.90
27759;DHT22;15148;48.972;12.794;2023-02-28T00:08:07;-3.30;99.90
27759;DHT22;15148;48.972;12.794;2023-02-28T00:13:09;-3.20;99.90
27759;DHT22;15148;48.972;12.794;2023-02-28T00:18:10;-3.20;99.90
27759;DHT22;15148;48.972;12.794;2023-02-28T00:23:13;-3.20;99.90
27759;DHT22;15148;48.972;12.794;2023-02-28T00:28:15;-3.20;99.90
27759;DHT22;15148;48.972;12.794;2023-02-28T00:33:17;-3.30;99.90
27759;DHT22;15148;48.972;12.794;2023-02-28T00:38:18;-3.50;99.90
27759;DHT22;15148;48.972;12.794;2023-02-28T00:43:20;-3.50;99.90
27759;DHT22;15148;48.972;12.794;2023-02-28T00:48:22;-3.50;99.90
27759;DHT22;15148;48.972;12.794;2023-02-28T00:53:24;-3.30;99.90
27759;DHT22;15148;48.972;12.794;2023-02-28T00:58:26;-3.20;99.90
27759;DHT22;15148;48.972;12.794;2023-02-28T01:03:28;-3.10;99.90
27759;DHT22;15148;48.972;12.794;2023-02-28T01:08:30;-3.20;99.90
27759;DHT22;15148;48.972;12.794;2023-02-28T01:13:32;-3.20;99.90
27759;DHT22;15148;48.972;12.794;2023-02-28T01:18:33;-3.10;99.90
27759;DHT22;15148;48.972;12.794;2023-02-28T01:23:36;-3.20;99.90
27759;DHT22;15148;48.972;12.794;2023-02-28T01:28:38;-3.10;99.90
27759;DHT22;15148;48.972;12.794;2023-02-28T01:33:40;-3.00;99.90
27759;DHT22;15148;48.972;12.794;2023-02-28T01:38:42;-2.90;99.90
27759;DHT22;15148;48.972;12.794;2023-02-28T01:48:53;-2.60;99.90
27759;DHT22;15148;48.972;12.794;2023-02-28T01:54:05;-2.50;99.90
27759;DHT22;15148;48.972;12.794;2023-02-28T01:59:29;-2.30;99.90
27759;DHT22;15148;48.972;12.794;2023-02-28T02:05:06;-2.20;99.90
27759;DHT22;15148;48.972;12.794;2023-02-28T02:10:16;-2.20;99.90
27759;DHT22;15148;48.972;12.794;2023-02-28T02:15:31;-2.10;99.90
27759;DHT22;15148;48.972;12.794;2023-02-28T02:21:09;-2.00;99.90
27759;DHT22;15148;48.972;12.794;2023-02-28T02:32:02;-2.00;99.90
27759;DHT22;15148;48.972;12.794;2023-02-28T02:42:30;-2.00;99.90
27759;DHT22;15148;48.972;12.794;2023-02-28T02:47:33;-1.90;99.90
27759;DHT22;15148;48.972;12.794;2023-02-28T02:52:41;-1.90;99.90
27759;DHT22;15148;48.972;12.794;2023-02-28T02:57:48;-1.90;99.90
27759;DHT22;15148;48.972;12.794;2023-02-28T03:02:52;-1.80;99.90
27759;DHT22;15148;48.972;12.794;2023-02-28T03:07:54;-1.90;99.90
27759;DHT22;15148;48.972;12.794;2023-02-28T03:23:45;-2.00;99.90
27759;DHT22;15148;48.972;12.794;2023-02-28T03:29:10;-2.00;99.90
27759;DHT22;15148;48.972;12.794;2023-02-28T03:34:24;-2.00;99.90
27759;DHT22;15148;48.972;12.794;2023-02-28T03:39:47;-2.10;99.90
27759;DHT22;15148;48.972;12.794;2023-02-28T03:45:00;-2.10;99.90
27759;DHT22;15148;48.972;12.794;2023-02-28T03:55:11;-2.00;99.90
27759;DHT22;15148;48.972;12.794;2023-02-28T04:00:16;-2.00;99.90
27759;DHT22;15148;48.972;12.794;2023-02-28T04:05:19;-1.90;99.90
27759;DHT22;15148;48.972;12.794;2023-02-28T04:10:21;-1.90;99.90
27759;DHT22;15148;48.972;12.794;2023-02-28T04:15:23;-1.90;99.90
27759;DHT22;15148;48.972;12.794;2023-02-28T04:20:26;-1.80;99.90
27759;DHT22;15148;48.972;12.794;2023-02-28T04:25:28;-1.80;99.90
27759;DHT22;15148;48.972;12.794;2023-02-28T04:30:29;-1.80;99.90
27759;DHT22;15148;48.972;12.794;2023-02-28T04:35:34;-1.80;99.90
27759;DHT22;15148;48.972;12.794;2023-02-28T04:40:35;-1.80;99.90
27759;DHT22;15148;48.972;12.794;2023-02-28T04:45:37;-1.80;99.90
27759;DHT22;15148;48.972;12.794;2023-02-28T04:50:39;-1.80;99.90
27759;DHT22;15148;48.972;12.794;2023-02-28T04:55:41;-1.80;99.90
27759;DHT22;15148;48.972;12.794;2023-02-28T05:00:43;-1.80;99.90
27759;DHT22;15148;48.972;12.794;2023-02-28T05:05:45;-1.70;99.90
27759;DHT22;15148;48.972;12.794;2023-02-28T05:10:46;-1.70;99.90
27759;DHT22;15148;48.972;12.794;2023-02-28T05:15:48;-1.80;99.90
27759;DHT22;15148;48.972;12.794;2023-02-28T05:20:50;-1.80;99.90
27759;DHT22;15148;48.972;12.794;2023-02-28T05:25:52;-1.80;99.90
27759;DHT22;15148;48.972;12.794;2023-02-28T05:30:54;-1.80;99.90
27759;DHT22;15148;48.972;12.794;2023-02-28T05:35:56;-1.90;99.90
27759;DHT22;15148;48.972;12.794;2023-02-28T05:40:58;-1.80;99.90
27759;DHT22;15148;48.972;12.794;2023-02-28T05:46:03;-1.80;99.90
27759;DHT22;15148;48.972;12.794;2023-02-28T05:51:06;-1.90;99.90
27759;DHT22;15148;48.972;12.794;2023-02-28T05:56:08;-1.90;99.90
27759;DHT22;15148;48.972;12.794;2023-02-28T06:01:36;-1.90;99.90
27759;DHT22;15148;48.972;12.794;2023-02-28T06:06:38;-2.00;99.90
27759;DHT22;15148;48.972;12.794;2023-02-28T06:11:41;-1.90;99.90
27759;DHT22;15148;48.972;12.794;2023-02-28T06:16:43;-1.90;99.90
27759;DHT22;15148;48.972;12.794;2023-02-28T06:21:49;-1.80;99.90
27759;DHT22;15148;48.972;12.794;2023-02-28T06:26:51;-1.80;99.90
27759;DHT22;15148;48.972;12.794;2023-02-28T06:31:53;-1.80;99.90
27759;DHT22;15148;48.972;12.794;2023-02-28T06:36:54;-1.80;99.90
27759;DHT22;15148;48.972;12.794;2023-02-28T06:41:57;-1.80;99.90
27759;DHT22;15148;48.972;12.794;2023-02-28T06:46:59;-1.70;99.90
27759;DHT22;15148;48.972;12.794;2023-02-28T06:52:01;-1.60;99.90
27759;DHT22;15148;48.972;12.794;2023-02-28T06:57:03;-1.30;99.90
27759;DHT22;15148;48.972;12.794;2023-02-28T07:02:07;-1.00;99.90
27759;DHT22;15148;48.972;12.794;2023-02-28T07:07:09;-0.70;99.90
27759;DHT22;15148;48.972;12.794;2023-02-28T07:12:11;-0.60;99.90
27759;DHT22;15148;48.972;12.794;2023-02-28T07:17:13;-0.30;99.90
27759;DHT22;15148;48.972;12.794;2023-02-28T07:22:15;-0.10;99.90
27759;DHT22;15148;48.972;12.794;2023-02-28T07:27:17;0.00;99.90
27759;DHT22;15148;48.972;12.794;2023-02-28T07:32:25;0.10;99.90
27759;DHT22;15148;48.972;12.794;2023-02-28T07:37:27;0.30;99.90
27759;DHT22;15148;48.972;12.794;2023-02-28T07:42:28;0.40;99.90
27759;DHT22;15148;48.972;12.794;2023-02-28T07:47:31;0.60;99.90
27759;DHT22;15148;48.972;12.794;2023-02-28T07:52:33;0.70;99.90
27759;DHT22;15148;48.972;12.794;2023-02-28T07:57:35;0.80;99.90
27759;DHT22;15148;48.972;12.794;2023-02-28T08:02:38;0.90;99.90
27759;DHT22;15148;48.972;12.794;2023-02-28T08:07:39;1.20;99.90
27759;DHT22;15148;48.972;12.794;2023-02-28T08:12:41;1.30;99.90
27759;DHT22;15148;48.972;12.794;2023-02-28T08:17:43;1.40;99.90
27759;DHT22;15148;48.972;12.794;2023-02-28T08:22:45;1.50;99.90
27759;DHT22;15148;48.972;12.794;2023-02-28T08:27:47;1.70;99.90
27759;DHT22;15148;48.972;12.794;2023-02-28T08:32:48;1.80;99.90
27759;DHT22;15148;48.972;12.794;2023-02-28T08:37:50;1.90;99.90
27759;DHT22;15148;48.972;12.794;2023-02-28T08:42:52;2.00;99.90
27759;DHT22;15148;48.972;12.794;2023-02-28T08:47:54;2.00;99.90
27759;DHT22;15148;48.972;12.794;2023-02-28T08:52:57;2.10;99.90
27759;DHT22;15148;48.972;12.794;2023-02-28T08:57:58;2.20;99.90
27759;DHT22;15148;48.972;12.794;2023-02-28T09:03:00;2.30;99.90
27759;DHT22;15148;48.972;12.794;2023-02-28T09:08:02;2.40;99.90
27759;DHT22;15148;48.972;12.794;2023-02-28T09:13:04;2.50;99.90
27759;DHT22;15148;48.972;12.794;2023-02-28T09:18:07;2.60;99.90
27759;DHT22;15148;48.972;12.794;2023-02-28T09:23:11;2.70;99.90
27759;DHT22;15148;48.972;12.794;2023-02-28T09:28:14;2.60;99.90
27759;DHT22;15148;48.972;12.794;2023-02-28T09:33:18;2.80;99.90
27759;DHT22;15148;48.972;12.794;2023-02-28T09:38:22;2.90;99.90
27759;DHT22;15148;48.972;12.794;2023-02-28T09:43:27;2.90;99.90
27759;DHT22;15148;48.972;12.794;2023-02-28T09:48:36;3.10;99.90
27759;DHT22;15148;48.972;12.794;2023-02-28T09:53:41;2.90;99.90
27759;DHT22;15148;48.972;12.794;2023-02-28T09:58:56;2.90;99.90
27759;DHT22;15148;48.972;12.794;2023-02-28T10:04:16;2.90;99.90
27759;DHT22;15148;48.972;12.794;2023-02-28T10:09:25;3.10;99.90
27759;DHT22;15148;48.972;12.794;2023-02-28T10:14:29;3.10;99.90
27759;DHT22;15148;48.972;12.794;2023-02-28T10:19:42;3.30;99.90
27759;DHT22;15148;48.972;12.794;2023-02-28T10:24:49;3.30;99.90
27759;DHT22;15148;48.972;12.794;2023-02-28T10:29:55;3.40;99.90
27759;DHT22;15148;48.972;12.794;2023-02-28T10:35:01;3.60;99.90
27759;DHT22;15148;48.972;12.794;2023-02-28T10:45:22;3.80;99.90
27759;DHT22;15148;48.972;12.794;2023-02-28T10:50:34;3.80;99.90
27759;DHT22;15148;48.972;12.794;2023-02-28T10:55:37;3.90;99.90
27759;DHT22;15148;48.972;12.794;2023-02-28T11:00:39;4.00;99.90
27759;DHT22;15148;48.972;12.794;2023-02-28T11:05:42;4.20;99.90
27759;DHT22;15148;48.972;12.794;2023-02-28T11:10:46;4.50;99.90
27759;DHT22;15148;48.972;12.794;2023-02-28T11:16:00;4.60;99.90
27759;DHT22;15148;48.972;12.794;2023-02-28T11:21:03;4.60;99.90
27759;DHT22;15148;48.972;12.794;2023-02-28T11:26:05;4.70;99.90
27759;DHT22;15148;48.972;12.794;2023-02-28T11:36:16;4.70;99.90
27759;DHT22;15148;48.972;12.794;2023-02-28T11:46:59;4.70;99.90
27759;DHT22;15148;48.972;12.794;2023-02-28T12:23:43;5.10;99.90
27759;DHT22;15148;48.972;12.794;2023-02-28T12:28:53;5.10;99.90
27759;DHT22;15148;48.972;12.794;2023-02-28T12:34:03;5.30;99.90
27759;DHT22;15148;48.972;12.794;2023-02-28T12:39:26;5.50;99.90
27759;DHT22;15148;48.972;12.794;2023-02-28T12:44:40;5.50;99.90
27759;DHT22;15148;48.972;12.794;2023-02-28T12:49:49;5.30;99.90
27759;DHT22;15148;48.972;12.794;2023-02-28T12:55:12;5.30;99.90
27759;DHT22;15148;48.972;12.794;2023-02-28T13:00:19;5.10;99.90
27759;DHT22;15148;48.972;12.794;2023-02-28T13:10:47;4.90;99.90
27759;DHT22;15148;48.972;12.794;2023-02-28T13:16:10;4.80;99.90
27759;DHT22;15148;48.972;12.794;2023-02-28T13:21:26;4.60;99.90
27759;DHT22;15148;48.972;12.794;2023-02-28T13:42:36;5.40;99.90
27759;DHT22;15148;48.972;12.794;2023-02-28T13:48:03;5.50;99.90
27759;DHT22;15148;48.972;12.794;2023-02-28T14:08:36;5.40;98.70
27759;DHT22;15148;48.972;12.794;2023-02-28T14:19:00;5.40;99.90
27759;DHT22;15148;48.972;12.794;2023-02-28T14:40:30;5.10;99.90
27759;DHT22;15148;48.972;12.794;2023-02-28T14:45:35;4.90;99.90
27759;DHT22;15148;48.972;12.794;2023-02-28T14:50:39;4.80;99.90
27759;DHT22;15148;48.972;12.794;2023-02-28T14:55:45;4.70;99.90
27759;DHT22;15148;48.972;12.794;2023-02-28T15:00:49;4.60;99.90
27759;DHT22;15148;48.972;12.794;2023-02-28T15:06:19;4.30;99.90
27759;DHT22;15148;48.972;12.794;2023-02-28T15:11:23;4.30;99.90
27759;DHT22;15148;48.972;12.794;2023-02-28T15:16:31;4.20;99.90
27759;DHT22;15148;48.972;12.794;2023-02-28T15:21:39;3.90;99.90
27759;DHT22;15148;48.972;12.794;2023-02-28T15:26:48;3.80;99.90
27759;DHT22;15148;48.972;12.794;2023-02-28T15:32:04;3.70;99.90
27759;DHT22;15148;48.972;12.794;2023-02-28T15:42:32;3.60;99.90
27759;DHT22;15148;48.972;12.794;2023-02-28T15:47:36;3.50;99.90
27759;DHT22;15148;48.972;12.794;2023-02-28T15:52:41;3.60;99.90
27759;DHT22;15148;48.972;12.794;2023-02-28T15:57:45;3.40;99.90
27759;DHT22;15148;48.972;12.794;2023-02-28T16:02:48;3.20;99.90
27759;DHT22;15148;48.972;12.794;2023-02-28T16:07:51;3.10;99.90
27759;DHT22;15148;48.972;12.794;2023-02-28T16:12:55;3.00;99.90
27759;DHT22;15148;48.972;12.794;2023-02-28T16:17:58;2.80;99.90
27759;DHT22;15148;48.972;12.794;2023-02-28T16:23:01;2.70;99.90
27759;DHT22;15148;48.972;12.794;2023-02-28T16:28:19;2.50;99.90
27759;DHT22;15148;48.972;12.794;2023-02-28T16:33:23;2.40;99.90
27759;DHT22;15148;48.972;12.794;2023-02-28T16:38:26;2.30;99.90
27759;DHT22;15148;48.972;12.794;2023-02-28T16:43:29;2.20;99.90
27759;DHT22;15148;48.972;12.794;2023-02-28T16:48:32;2.00;99.90
27759;DHT22;15148;48.972;12.794;2023-02-28T16:53:36;1.90;99.90
27759;DHT22;15148;48.972;12.794;2023-02-28T16:58:39;1.80;99.90
27759;DHT22;15148;48.972;12.794;2023-02-28T17:03:42;1.70;99.90
27759;DHT22;15148;48.972;12.794;2023-02-28T17:08:46;1.70;99.90
27759;DHT22;15148;48.972;12.794;2023-02-28T17:13:49;1.60;99.90
27759;DHT22;15148;48.972;12.794;2023-02-28T17:18:57;1.50;99.90
27759;DHT22;15148;48.972;12.794;2023-02-28T17:24:01;1.40;99.90
27759;DHT22;15148;48.972;12.794;2023-02-28T17:29:09;1.50;99.90
27759;DHT22;15148;48.972;12.794;2023-02-28T17:34:14;1.40;99.90
27759;DHT22;15148;48.972;12.794;2023-02-28T17:39:21;1.40;99.90
27759;DHT22;15148;48.972;12.794;2023-02-28T17:44:27;1.40;99.90
27759;DHT22;15148;48.972;12.794;2023-02-28T17:49:30;1.20;99.90
27759;DHT22;15148;48.972;12.794;2023-02-28T17:54:33;1.20;99.90
27759;DHT22;15148;48.972;12.794;2023-02-28T17:59:36;1.20;99.90
27759;DHT22;15148;48.972;12.794;2023-02-28T18:04:38;1.20;99.90
27759;DHT22;15148;48.972;12.794;2023-02-28T18:09:40;1.10;99.90
27759;DHT22;15148;48.972;12.794;2023-02-28T18:14:41;1.10;99.90
27759;DHT22;15148;48.972;12.794;2023-02-28T18:19:44;1.10;99.90
27759;DHT22;15148;48.972;12.794;2023-02-28T18:24:48;1.00;99.90
27759;DHT22;15148;48.972;12.794;2023-02-28T18:29:51;1.00;99.90
27759;DHT22;15148;48.972;12.794;2023-02-28T18:34:55;1.00;99.90
27759;DHT22;15148;48.972;12.794;2023-02-28T18:39:58;1.00;99.90
27759;DHT22;15148;48.972;12.794;2023-02-28T18:45:01;0.90;99.90
27759;DHT22;15148;48.972;12.794;2023-02-28T18:50:05;1.00;99.90
27759;DHT22;15148;48.972;12.794;2023-02-28T18:55:09;1.00;99.90
27759;DHT22;15148;48.972;12.794;2023-02-28T19:00:15;1.00;99.90
27759;DHT22;15148;48.972;12.794;2023-02-28T19:05:21;1.00;99.90
27759;DHT22;15148;48.972;12.794;2023-02-28T19:10:24;1.00;99.90
27759;DHT22;15148;48.972;12.794;2023-02-28T19:15:29;1.00;99.90
27759;DHT22;15148;48.972;12.794;2023-02-28T19:20:30;0.90;99.90
27759;DHT22;15148;48.972;12.794;2023-02-28T19:25:33;0.90;99.90
27759;DHT22;15148;48.972;12.794;2023-02-28T19:30:36;0.90;99.90
27759;DHT22;15148;48.972;12.794;2023-02-28T19:35:40;0.90;99.90
27759;DHT22;15148;48.972;12.794;2023-02-28T19:40:44;0.90;99.90
27759;DHT22;15148;48.972;12.794;2023-02-28T19:45:47;0.90;99.90
27759;DHT22;15148;48.972;12.794;2023-02-28T19:50:50;0.90;99.90
27759;DHT22;15148;48.972;12.794;2023-02-28T19:55:52;0.90;99.90
27759;DHT22;15148;48.972;12.794;2023-02-28T20:00:54;0.80;99.90
27759;DHT22;15148;48.972;12.794;2023-02-28T20:06:02;0.80;99.90
27759;DHT22;15148;48.972;12.794;2023-02-28T20:11:12;0.80;99.90
27759;DHT22;15148;48.972;12.794;2023-02-28T20:16:15;0.80;99.90
27759;DHT22;15148;48.972;12.794;2023-02-28T20:21:17;0.80;99.90
27759;DHT22;15148;48.972;12.794;2023-02-28T20:26:19;0.80;99.90
27759;DHT22;15148;48.972;12.794;2023-02-28T20:31:22;0.80;99.90
27759;DHT22;15148;48.972;12.794;2023-02-28T20:36:25;0.80;99.90
27759;DHT22;15148;48.972;12.794;2023-02-28T20:41:27;0.70;99.90
27759;DHT22;15148;48.972;12.794;2023-02-28T20:46:29;0.80;99.90
27759;DHT22;15148;48.972;12.794;2023-02-28T20:51:33;0.70;99.90
27759;DHT22;15148;48.972;12.794;2023-02-28T20:56:34;0.70;99.90
27759;DHT22;15148;48.972;12.794;2023-02-28T21:01:36;0.70;99.90
27759;DHT22;15148;48.972;12.794;2023-02-28T21:06:40;0.60;99.90
27759;DHT22;15148;48.972;12.794;2023-02-28T21:11:44;0.60;99.90
27759;DHT22;15148;48.972;12.794;2023-02-28T21:16:46;0.50;99.90
27759;DHT22;15148;48.972;12.794;2023-02-28T21:21:48;0.50;99.90
27759;DHT22;15148;48.972;12.794;2023-02-28T21:26:50;0.50;99.90
27759;DHT22;15148;48.972;12.794;2023-02-28T21:31:53;0.60;99.90
27759;DHT22;15148;48.972;12.794;2023-02-28T21:36:55;0.60;99.90
27759;DHT22;15148;48.972;12.794;2023-02-28T21:41:57;0.70;99.90
27759;DHT22;15148;48.972;12.794;2023-02-28T21:47:04;0.70;99.90
27759;DHT22;15148;48.972;12.794;2023-02-28T21:52:06;0.60;99.90
27759;DHT22;15148;48.972;12.794;2023-02-28T21:57:08;0.60;99.90
27759;DHT22;15148;48.972;12.794;2023-02-28T22:02:10;0.50;99.90
27759;DHT22;15148;48.972;12.794;2023-02-28T22:07:12;0.50;99.90
27759;DHT22;15148;48.972;12.794;2023-02-28T22:12:14;0.50;99.90
27759;DHT22;15148;48.972;12.794;2023-02-28T22:17:16;0.40;99.90
27759;DHT22;15148;48.972;12.794;2023-02-28T22:22:18;0.50;99.90
27759;DHT22;15148;48.972;12.794;2023-02-28T22:27:20;0.50;99.90
27759;DHT22;15148;48.972;12.794;2023-02-28T22:32:21;0.50;99.90
27759;DHT22;15148;48.972;12.794;2023-02-28T22:37:23;0.50;99.90
27759;DHT22;15148;48.972;12.794;2023-02-28T22:42:25;0.50;99.90
27759;DHT22;15148;48.972;12.794;2023-02-28T22:47:27;0.50;99.90
27759;DHT22;15148;48.972;12.794;2023-02-28T22:52:29;0.50;99.90
27759;DHT22;15148;48.972;12.794;2023-02-28T22:57:31;0.40;99.90
27759;DHT22;15148;48.972;12.794;2023-02-28T23:02:33;0.50;99.90
27759;DHT22;15148;48.972;12.794;2023-02-28T23:07:35;0.40;99.90
27759;DHT22;15148;48.972;12.794;2023-02-28T23:12:37;0.40;99.90
27759;DHT22;15148;48.972;12.794;2023-02-28T23:17:51;0.40;99.90
27759;DHT22;15148;48.972;12.794;2023-02-28T23:22:53;0.40;99.90
27759;DHT22;15148;48.972;12.794;2023-02-28T23:27:55;0.30;99.90
27759;DHT22;15148;48.972;12.794;2023-02-28T23:32:57;0.30;99.90
27759;DHT22;15148;48.972;12.794;2023-02-28T23:37:59;0.40;99.90
27759;DHT22;15148;48.972;12.794;2023-02-28T23:43:01;0.40;99.90
27759;DHT22;15148;48.972;12.794;2023-02-28T23:48:03;0.40;99.90
27759;DHT22;15148;48.972;12.794;2023-02-28T23:53:05;0.40;99.90
27759;DHT22;15148;48.972;12.794;2023-02-28T23:58:08;0.40;99.90
